Terminal Aerodrome Forecast
Issued by NWS

Home | Current Version | Previous Version | Text Only | Print | Product List | Glossary On
Versions: 1 2 3 4 5 6 7 8 9 10 11 12 13 14 15 16 17 18 19 20 21 22 23 24
000
FTUS44 KOUN 190522
TAFGAG
TAF
KGAG 190522Z 1906/2006 19009KT P6SM SCT300
     FM191500 18013G18KT P6SM FEW040 SCT300
     FM192300 17010KT P6SM SCT080 BKN150 PROB30 2002/2006 4SM -TSRA
      BKN040CB=

USA.gov is the U.S. government's official web portal to all federal, state and local government web resources and services.